createdAt,value
2018-12-03T00:00:45.443Z,99523.42
2018-12-03T00:03:13.693Z,99520.26
2018-12-03T00:05:41.951Z,99514.84
2018-12-03T00:08:10.270Z,99522.29
2018-12-03T00:10:38.501Z,99522.67
2018-12-03T00:13:06.749Z,99520.99
2018-12-03T00:15:35.896Z,99520.03
2018-12-03T00:18:03.242Z,99524.53
2018-12-03T00:20:31.482Z,99524.91
2018-12-03T00:22:59.731Z,99524.84
2018-12-03T00:25:28.080Z,99524.09
2018-12-03T00:27:56.434Z,99520.28
2018-12-03T00:30:24.617Z,99514.14
2018-12-03T00:32:52.924Z,99517.50
2018-12-03T00:35:21.165Z,99519.80
2018-12-03T00:37:49.414Z,99521.45
2018-12-03T00:40:17.817Z,99522.79
2018-12-03T00:42:46.177Z,99524.34
2018-12-03T00:45:14.475Z,99519.05
2018-12-03T00:47:42.722Z,99520.87
2018-12-03T00:50:10.973Z,99514.59
2018-12-03T00:52:39.204Z,99520.97
2018-12-03T00:55:08.219Z,99517.27
2018-12-03T00:57:36.649Z,99516.69
2018-12-03T01:00:07.469Z,99510.27
2018-12-03T01:02:35.837Z,99515.45
2018-12-03T01:05:04.449Z,99513.80
2018-12-03T01:07:32.800Z,99519.94
2018-12-03T01:10:01.036Z,99511.13
2018-12-03T01:12:29.257Z,99520.15
2018-12-03T01:14:57.532Z,99515.07
2018-12-03T01:17:25.838Z,99520.42
2018-12-03T01:19:54.139Z,99519.12
2018-12-03T01:22:22.571Z,99519.22
2018-12-03T01:24:50.900Z,99521.14
2018-12-03T01:27:19.219Z,99523.82
2018-12-03T01:32:34.873Z,99519.83
2018-12-03T01:35:03.136Z,99520.21
2018-12-03T01:37:31.372Z,99527.28
2018-12-03T01:39:59.625Z,99530.81
2018-12-03T01:42:27.860Z,99536.55
2018-12-03T01:44:56.111Z,99539.53
2018-12-03T01:47:24.332Z,99542.21
2018-12-03T01:49:52.576Z,99535.89
2018-12-03T01:52:20.802Z,99541.56
2018-12-03T01:54:49.040Z,99533.52
2018-12-03T01:57:17.262Z,99543.58
2018-12-03T01:59:45.553Z,99539.08
2018-12-03T02:02:13.787Z,99535.55
2018-12-03T02:04:42.044Z,99525.89
2018-12-03T02:07:10.268Z,99523.70
2018-12-03T02:09:38.482Z,99520.87
2018-12-03T02:12:06.741Z,99518.67
2018-12-03T02:14:34.980Z,99514.70
2018-12-03T02:17:03.193Z,99511.50
2018-12-03T02:19:31.426Z,99512.87
2018-12-03T02:21:59.664Z,99512.98
2018-12-03T02:24:27.896Z,99521.30
2018-12-03T02:26:56.128Z,99518.62
2018-12-03T02:29:24.340Z,99519.48
2018-12-03T02:31:52.576Z,99523.39
2018-12-03T02:34:20.818Z,99526.38
2018-12-03T02:36:49.073Z,99527.34
2018-12-03T02:39:17.292Z,99522.73
2018-12-03T02:41:45.514Z,99523.14
2018-12-03T02:44:13.753Z,99513.77
2018-12-03T02:46:41.995Z,99519.05
2018-12-03T02:49:10.236Z,99515.52
2018-12-03T02:51:38.501Z,99517.61
2018-12-03T02:54:06.888Z,99523.93
2018-12-03T02:56:35.125Z,99524.89
2018-12-03T02:59:22.844Z,99523.83
2018-12-03T03:02:10.488Z,99526.33
2018-12-03T03:04:38.718Z,99531.20
2018-12-03T03:07:06.949Z,99538.20
2018-12-03T03:09:35.175Z,99532.19
2018-12-03T03:12:03.422Z,99534.01
2018-12-03T03:14:31.653Z,99537.55
2018-12-03T03:16:59.889Z,99534.38
2018-12-03T03:19:28.091Z,99524.52
2018-12-03T03:21:56.323Z,99525.69
2018-12-03T03:24:24.519Z,99533.06
2018-12-03T03:26:52.787Z,99530.45
2018-12-03T03:29:21.000Z,99521.08
2018-12-03T03:31:49.329Z,99526.45
2018-12-03T03:34:17.538Z,99525.30
2018-12-03T03:36:45.781Z,99525.97
2018-12-03T03:39:14.042Z,99525.30
2018-12-03T03:41:42.257Z,99516.78
2018-12-03T03:44:10.565Z,99518.42
2018-12-03T03:46:38.807Z,99514.77
2018-12-03T03:49:07.092Z,99516.04
2018-12-03T03:51:35.287Z,99514.77
2018-12-03T03:54:03.543Z,99513.84
2018-12-03T03:56:31.785Z,99516.90
2018-12-03T03:59:00.041Z,99508.27
2018-12-03T04:01:28.282Z,99521.77
2018-12-03T04:03:56.532Z,99525.31
2018-12-03T04:06:24.746Z,99521.30
2018-12-03T04:08:53.000Z,99520.81
2018-12-03T04:11:21.251Z,99518.61
2018-12-03T04:13:49.509Z,99516.90
2018-12-03T04:16:17.721Z,99520.33
2018-12-03T04:18:45.955Z,99517.27
2018-12-03T04:21:14.171Z,99515.45
2018-12-03T04:23:42.407Z,99520.25
2018-12-03T04:26:10.634Z,99518.98
2018-12-03T04:28:38.892Z,99516.50
2018-12-03T04:31:07.108Z,99507.72
2018-12-03T04:33:35.380Z,99509.42
2018-12-03T04:36:03.630Z,99507.23
2018-12-03T04:38:31.899Z,99500.05
2018-12-03T04:41:00.115Z,99493.45
2018-12-03T04:43:28.384Z,99492.59
2018-12-03T04:45:56.631Z,99486.83
2018-12-03T04:48:24.836Z,99493.94
2018-12-03T04:50:53.113Z,99497.37
2018-12-03T04:53:21.357Z,99493.05
2018-12-03T04:55:49.607Z,99490.84
2018-12-03T04:58:17.837Z,99495.73
2018-12-03T05:00:46.077Z,99498.41
2018-12-03T05:03:14.289Z,99494.80
2018-12-03T05:05:49.907Z,99500.05
2018-12-03T05:08:18.149Z,99491.15
2018-12-03T05:10:46.393Z,99491.63
2018-12-03T05:13:14.636Z,99487.98
2018-12-03T05:15:42.878Z,99489.33
2018-12-03T05:18:11.089Z,99486.65
2018-12-03T05:20:39.355Z,99485.30
2018-12-03T05:23:07.621Z,99481.28
2018-12-03T05:25:35.846Z,99486.09
2018-12-03T05:28:04.119Z,99485.20
2018-12-03T05:30:32.355Z,99478.98
2018-12-03T05:33:00.579Z,99479.39
2018-12-03T05:35:29.748Z,99471.72
2018-12-03T05:37:58.223Z,99479.17
2018-12-03T05:40:30.645Z,99473.44
2018-12-03T05:42:58.875Z,99470.28
2018-12-03T05:45:27.133Z,99469.31
2018-12-03T05:47:55.359Z,99474.11
2018-12-03T05:50:23.608Z,99474.11
2018-12-03T05:52:51.857Z,99477.09
2018-12-03T05:55:20.128Z,99475.83
2018-12-03T05:57:48.365Z,99477.47
2018-12-03T06:00:18.058Z,99478.43
2018-12-03T06:02:46.282Z,99481.48
2018-12-03T06:05:14.992Z,99486.25
2018-12-03T06:07:43.252Z,99487.22
2018-12-03T06:10:12.906Z,99482.16
2018-12-03T06:12:41.145Z,99479.55
2018-12-03T06:15:10.773Z,99475.53
2018-12-03T06:17:39.374Z,99473.63
2018-12-03T06:20:27.049Z,99474.97
2018-12-03T06:22:55.337Z,99477.66
2018-12-03T06:25:42.990Z,99474.38
2018-12-03T06:28:11.230Z,99478.70
2018-12-03T06:30:39.652Z,99476.58
2018-12-03T06:33:07.862Z,99473.82
2018-12-03T06:35:36.102Z,99473.23
2018-12-03T06:38:04.321Z,99479.00
2018-12-03T06:40:32.572Z,99472.48
2018-12-03T06:43:00.862Z,99471.44
2018-12-03T06:45:29.337Z,99470.95
2018-12-03T06:48:20.429Z,99466.08
2018-12-03T06:50:48.703Z,99464.73
2018-12-03T06:53:16.933Z,99470.09
2018-12-03T06:55:45.199Z,99470.17
2018-12-03T06:58:13.979Z,99471.89
2018-12-03T07:00:44.015Z,99464.62
2018-12-03T07:03:12.268Z,99465.38
2018-12-03T07:05:40.485Z,99469.02
2018-12-03T07:08:09.421Z,99471.62
2018-12-03T07:10:37.635Z,99471.70
2018-12-03T07:13:26.597Z,99475.64
2018-12-03T07:15:56.341Z,99476.09
2018-12-03T07:18:25.175Z,99472.48
2018-12-03T07:20:53.389Z,99478.22
2018-12-03T07:23:21.642Z,99484.73
2018-12-03T07:25:49.891Z,99485.22
2018-12-03T07:28:18.122Z,99488.16
2018-12-03T07:30:46.336Z,99484.92
2018-12-03T07:33:14.589Z,99488.94
2018-12-03T07:35:42.812Z,99485.11
2018-12-03T07:38:11.106Z,99487.79
2018-12-03T07:40:39.311Z,99498.89
2018-12-03T07:43:07.560Z,99498.30
2018-12-03T07:45:35.792Z,99495.42
2018-12-03T07:48:04.024Z,99502.13
2018-12-03T07:50:32.243Z,99493.90
2018-12-03T07:53:00.496Z,99498.78
2018-12-03T07:55:28.727Z,99491.77
2018-12-03T07:58:07.731Z,99495.42
2018-12-03T08:00:55.822Z,99490.92
2018-12-03T08:03:24.247Z,99490.84
2018-12-03T08:05:52.450Z,99487.08
2018-12-03T08:08:20.696Z,99489.68
2018-12-03T08:10:50.584Z,99487.26
2018-12-03T08:13:19.505Z,99481.52
2018-12-03T08:15:47.750Z,99486.77
2018-12-03T08:18:36.231Z,99491.39
2018-12-03T08:21:23.883Z,99494.83
2018-12-03T08:24:12.461Z,99485.55
2018-12-03T08:26:40.661Z,99479.70
2018-12-03T08:29:08.917Z,99482.19
2018-12-03T08:31:37.143Z,99487.92
2018-12-03T08:34:05.928Z,99481.22
2018-12-03T08:36:34.126Z,99485.05
2018-12-03T08:39:02.352Z,99479.95
2018-12-03T08:41:30.578Z,99487.06
2018-12-03T08:43:58.829Z,99490.97
2018-12-03T08:46:27.056Z,99484.55
2018-12-03T08:48:55.303Z,99484.44
2018-12-03T08:51:23.514Z,99490.36
2018-12-03T08:53:51.757Z,99486.26
2018-12-03T08:56:20.000Z,99494.48
2018-12-03T08:58:48.242Z,99485.95
2018-12-03T09:01:18.080Z,99489.78
2018-12-03T09:03:49.892Z,99482.84
2018-12-03T09:06:18.108Z,99487.70
2018-12-03T09:09:25.149Z,99486.48
2018-12-03T09:11:53.555Z,99484.34
2018-12-03T09:14:33.995Z,99482.92
2018-12-03T09:17:02.721Z,99477.61
2018-12-03T09:19:30.515Z,99477.22
2018-12-03T09:21:58.751Z,99489.76
2018-12-03T09:24:27.001Z,99487.19
2018-12-03T09:26:55.316Z,99497.53
2018-12-03T09:29:23.526Z,99489.92
2018-12-03T09:31:51.804Z,99492.61
2018-12-03T09:34:20.028Z,99487.18
2018-12-03T09:36:48.279Z,99484.87
2018-12-03T09:39:17.742Z,99489.39
2018-12-03T09:41:47.142Z,99490.41
2018-12-03T09:44:15.384Z,99486.39
2018-12-03T09:46:43.656Z,99490.41
2018-12-03T09:49:11.867Z,99494.64
2018-12-03T09:51:40.157Z,99497.13
2018-12-03T09:54:11.369Z,99492.22
2018-12-03T09:56:59.035Z,99492.91
2018-12-03T09:59:27.311Z,99497.67
2018-12-03T10:01:58.123Z,99489.07
2018-12-03T10:04:46.552Z,99488.67
2018-12-03T10:07:34.276Z,99486.07
2018-12-03T10:10:02.565Z,99480.81
2018-12-03T10:12:30.810Z,99485.05
2018-12-03T10:14:59.083Z,99485.41
2018-12-03T10:17:27.301Z,99482.36
2018-12-03T10:19:55.546Z,99476.25
2018-12-03T10:22:23.782Z,99473.94
2018-12-03T10:24:52.019Z,99483.50
2018-12-03T10:27:20.246Z,99476.50
2018-12-03T10:29:48.468Z,99473.16
2018-12-03T10:32:18.641Z,99474.47
2018-12-03T10:34:47.011Z,99468.41
2018-12-03T10:37:15.699Z,99472.30
2018-12-03T10:39:43.910Z,99465.38
2018-12-03T10:42:16.996Z,99464.61
2018-12-03T10:44:45.629Z,99462.08
2018-12-03T10:47:14.140Z,99462.86
2018-12-03T10:49:42.359Z,99475.69
2018-12-03T10:52:10.618Z,99471.08
2018-12-03T10:54:58.293Z,99465.59
2018-12-03T10:57:26.560Z,99461.39
2018-12-03T10:59:55.787Z,99467.05
2018-12-03T11:03:02.567Z,99461.80
2018-12-03T11:05:51.022Z,99468.28
2018-12-03T11:08:38.752Z,99469.79
2018-12-03T11:11:07.250Z,99465.71
2018-12-03T11:13:35.494Z,99472.92
2018-12-03T11:16:03.739Z,99470.34
2018-12-03T11:18:56.371Z,99471.11
2018-12-03T11:21:25.353Z,99470.72
2018-12-03T11:23:53.713Z,99468.27
2018-12-03T11:26:21.943Z,99466.23
2018-12-03T11:29:09.615Z,99458.65
2018-12-03T11:31:37.993Z,99459.94
2018-12-03T11:34:06.555Z,99459.69
2018-12-03T11:36:55.311Z,99458.25
2018-12-03T11:40:03.120Z,99459.84
2018-12-03T11:42:34.074Z,99454.80
2018-12-03T11:45:02.286Z,99447.48
2018-12-03T11:47:30.594Z,99448.56
2018-12-03T11:49:58.735Z,99446.15
2018-12-03T11:52:27.014Z,99439.76
2018-12-03T11:54:55.238Z,99442.05
2018-12-03T11:57:23.488Z,99441.34
2018-12-03T11:59:51.770Z,99443.30
2018-12-03T12:02:19.932Z,99440.62
2018-12-03T12:04:48.154Z,99442.45
2018-12-03T12:07:17.650Z,99450.73
2018-12-03T12:09:44.639Z,99448.78
2018-12-03T12:12:12.864Z,99449.91
2018-12-03T12:14:41.133Z,99450.03
2018-12-03T12:17:09.355Z,99453.85
2018-12-03T12:19:37.581Z,99459.11
2018-12-03T12:22:06.501Z,99455.56
2018-12-03T12:24:34.790Z,99459.48
2018-12-03T12:27:03.009Z,99451.19
2018-12-03T12:29:31.270Z,99462.16
2018-12-03T12:31:59.503Z,99471.00
2018-12-03T12:34:27.736Z,99467.30
2018-12-03T12:36:55.972Z,99468.73
2018-12-03T12:39:24.220Z,99466.11
2018-12-03T12:41:52.470Z,99466.91
2018-12-03T12:44:20.752Z,99468.86
2018-12-03T12:46:50.821Z,99469.81
2018-12-03T12:49:19.065Z,99472.28
2018-12-03T12:51:51.571Z,99465.77
2018-12-03T12:54:15.621Z,99464.98
2018-12-03T12:56:43.767Z,99465.68
2018-12-03T12:59:12.026Z,99475.31
2018-12-03T13:01:40.268Z,99472.25
2018-12-03T13:04:08.646Z,99472.62
2018-12-03T13:06:36.848Z,99474.30
2018-12-03T13:09:08.708Z,99475.36
2018-12-03T13:11:37.358Z,99480.59
2018-12-03T13:14:07.103Z,99474.59
2018-12-03T13:16:35.347Z,99473.34
2018-12-03T13:19:03.594Z,99474.38
2018-12-03T13:21:31.811Z,99478.86
2018-12-03T13:24:00.031Z,99478.78
2018-12-03T13:26:28.797Z,99475.39
2018-12-03T13:28:57.047Z,99477.35
2018-12-03T13:31:25.289Z,99476.74
2018-12-03T13:33:53.527Z,99474.55
2018-12-03T13:36:21.776Z,99474.22
2018-12-03T13:38:50.015Z,99474.87
2018-12-03T13:41:18.256Z,99476.86
2018-12-03T13:43:46.500Z,99485.34
2018-12-03T13:46:14.739Z,99474.22
2018-12-03T13:48:42.951Z,99481.91
2018-12-03T13:51:11.191Z,99477.11
2018-12-03T13:53:39.432Z,99482.81
2018-12-03T13:56:07.680Z,99477.64
2018-12-03T13:58:35.965Z,99476.67
2018-12-03T14:01:04.183Z,99471.30
2018-12-03T14:03:34.572Z,99473.61
2018-12-03T14:06:23.518Z,99478.95
2018-12-03T14:09:30.595Z,99475.23
2018-12-03T14:12:37.684Z,99475.81
2018-12-03T14:15:44.738Z,99482.28
2018-12-03T14:18:33.872Z,99476.86
2018-12-03T14:21:23.139Z,99476.13
2018-12-03T14:23:53.843Z,99479.81
2018-12-03T14:26:22.633Z,99492.10
2018-12-03T14:28:50.875Z,99487.78
2018-12-03T14:31:19.114Z,99489.84
2018-12-03T14:33:47.667Z,99488.59
2018-12-03T14:36:15.896Z,99495.42
2018-12-03T14:38:44.117Z,99496.59
2018-12-03T14:41:12.397Z,99504.98
2018-12-03T14:43:40.605Z,99503.75
2018-12-03T14:46:08.842Z,99503.58
2018-12-03T14:48:37.058Z,99501.66
2018-12-03T14:51:05.301Z,99503.69
2018-12-03T14:53:33.551Z,99507.34
2018-12-03T14:56:01.822Z,99504.59
2018-12-03T14:58:30.037Z,99507.84
2018-12-03T15:00:58.275Z,99511.43
2018-12-03T15:03:26.530Z,99515.54
2018-12-03T15:05:54.743Z,99518.53
2018-12-03T15:08:22.997Z,99521.70
2018-12-03T15:10:51.234Z,99520.55
2018-12-03T15:13:19.469Z,99519.80
2018-12-03T15:15:47.718Z,99520.96
2018-12-03T15:18:15.950Z,99523.72
2018-12-03T15:20:45.630Z,99528.83
2018-12-03T15:23:13.877Z,99529.50
2018-12-03T15:25:42.136Z,99532.38
2018-12-03T15:28:15.372Z,99534.02
2018-12-03T15:30:38.588Z,99527.02
2018-12-03T15:33:06.843Z,99531.04
2018-12-03T15:35:35.069Z,99527.42
2018-12-03T15:38:03.332Z,99529.33
2018-12-03T15:40:31.562Z,99530.86
2018-12-03T15:42:59.829Z,99529.92
2018-12-03T15:45:28.076Z,99532.67
2018-12-03T15:47:56.273Z,99541.98
2018-12-03T15:50:24.486Z,99545.05
2018-12-03T15:52:52.718Z,99549.63
2018-12-03T15:55:20.971Z,99548.88
2018-12-03T15:57:49.212Z,99552.05
2018-12-03T16:00:17.431Z,99554.80
2018-12-03T16:02:45.666Z,99549.25
2018-12-03T16:05:19.437Z,99551.74
2018-12-03T16:07:47.668Z,99547.16
2018-12-03T16:10:15.875Z,99545.63
2018-12-03T16:12:45.411Z,99550.72
2018-12-03T16:15:13.761Z,99544.88
2018-12-03T16:17:42.055Z,99548.89
2018-12-03T16:20:11.043Z,99547.73
2018-12-03T16:22:39.289Z,99557.23
2018-12-03T16:25:08.405Z,99554.80
2018-12-03T16:27:36.666Z,99556.55
2018-12-03T16:30:08.769Z,99557.70
2018-12-03T16:32:37.002Z,99553.86
2018-12-03T16:35:05.533Z,99553.93
2018-12-03T16:37:33.780Z,99551.36
2018-12-03T16:40:02.046Z,99550.39
2018-12-03T16:42:30.254Z,99548.68
2018-12-03T16:44:58.487Z,99554.62
2018-12-03T16:47:26.710Z,99560.44
2018-12-03T16:49:54.961Z,99565.53
2018-12-03T16:52:23.213Z,99559.80
2018-12-03T16:54:51.465Z,99564.95
2018-12-03T16:57:19.703Z,99560.53
2018-12-03T16:59:47.949Z,99566.30
2018-12-03T17:02:16.149Z,99562.28
2018-12-03T17:04:44.387Z,99564.37
2018-12-03T17:07:14.175Z,99560.73
2018-12-03T17:09:40.945Z,99562.83
2018-12-03T17:12:09.141Z,99563.59
2018-12-03T17:14:37.393Z,99564.08
2018-12-03T17:17:05.630Z,99560.33
2018-12-03T17:19:33.883Z,99548.86
2018-12-03T17:22:40.928Z,99556.11
2018-12-03T17:25:28.612Z,99556.79
2018-12-03T17:27:56.933Z,99556.61
2018-12-03T17:30:25.139Z,99564.55
2018-12-03T17:33:12.856Z,99568.49
2018-12-03T17:35:41.097Z,99573.75
2018-12-03T17:38:09.307Z,99580.42
2018-12-03T17:40:37.556Z,99579.09
2018-12-03T17:43:05.814Z,99576.69
2018-12-03T17:45:34.143Z,99585.01
2018-12-03T17:48:02.359Z,99577.17
2018-12-03T17:50:30.620Z,99582.53
2018-12-03T17:52:58.841Z,99576.87
2018-12-03T17:55:27.094Z,99572.58
2018-12-03T17:57:55.323Z,99577.14
2018-12-03T18:00:23.563Z,99576.57
2018-12-03T18:02:51.794Z,99575.23
2018-12-03T18:05:20.046Z,99564.20
2018-12-03T18:07:48.269Z,99572.04
2018-12-03T18:10:16.536Z,99576.16
2018-12-03T18:12:44.813Z,99567.89
2018-12-03T18:15:13.020Z,99569.41
2018-12-03T18:17:41.284Z,99575.34
2018-12-03T18:20:10.165Z,99569.30
2018-12-03T18:22:38.415Z,99568.61
2018-12-03T18:25:07.094Z,99567.07
2018-12-03T18:27:35.345Z,99561.52
2018-12-03T18:30:04.572Z,99564.67
2018-12-03T18:32:32.754Z,99564.84
2018-12-03T18:35:01.043Z,99577.16
2018-12-03T18:37:29.333Z,99571.59
2018-12-03T18:39:57.785Z,99582.37
2018-12-03T18:42:26.032Z,99579.80
2018-12-03T18:44:54.268Z,99572.41
2018-12-03T18:47:22.533Z,99573.06
2018-12-03T18:49:53.062Z,99571.83
2018-12-03T18:52:22.578Z,99558.51
2018-12-03T18:54:50.924Z,99556.41
2018-12-03T18:57:19.159Z,99559.73
2018-12-03T18:59:47.547Z,99562.10
2018-12-03T19:02:15.750Z,99566.86
2018-12-03T19:04:43.977Z,99564.88
2018-12-03T19:07:12.232Z,99565.05
2018-12-03T19:09:40.533Z,99561.30
2018-12-03T19:12:08.730Z,99558.63
2018-12-03T19:14:36.937Z,99559.47
2018-12-03T19:17:05.192Z,99564.23
2018-12-03T19:19:33.640Z,99562.59
2018-12-03T19:22:01.864Z,99560.49
2018-12-03T19:24:30.067Z,99567.08
2018-12-03T19:26:58.319Z,99571.19
2018-12-03T19:29:38.647Z,99563.81
2018-12-03T19:32:03.222Z,99561.92
2018-12-03T19:34:31.901Z,99559.31
2018-12-03T19:37:00.915Z,99563.91
2018-12-03T19:39:29.825Z,99553.38
2018-12-03T19:41:58.089Z,99552.99
2018-12-03T19:44:26.342Z,99554.39
2018-12-03T19:46:54.572Z,99550.48
2018-12-03T19:49:22.943Z,99557.00
2018-12-03T19:51:51.224Z,99554.49
2018-12-03T19:54:20.458Z,99555.61
2018-12-03T19:56:48.702Z,99554.66
2018-12-03T19:59:16.958Z,99563.26
2018-12-03T20:01:45.348Z,99563.10
2018-12-03T20:04:39.686Z,99567.91
2018-12-03T20:07:11.336Z,99575.72
2018-12-03T20:09:43.658Z,99576.73
2018-12-03T20:12:17.616Z,99576.64
2018-12-03T20:14:48.639Z,99580.27
2018-12-03T20:17:40.479Z,99580.42
2018-12-03T20:20:16.136Z,99580.84
2018-12-03T20:22:57.611Z,99580.75
2018-12-03T20:25:38.269Z,99579.89
2018-12-03T20:28:12.334Z,99580.75
2018-12-03T20:31:51.212Z,99574.22
2018-12-03T20:34:32.145Z,99569.23
2018-12-03T20:37:46.655Z,99562.45
2018-12-03T20:40:59.504Z,99559.55
2018-12-03T20:43:42.224Z,99561.91
2018-12-03T20:46:25.762Z,99559.02
2018-12-03T20:49:37.570Z,99559.23
2018-12-03T20:52:22.030Z,99560.51
2018-12-03T20:54:52.658Z,99569.55
2018-12-03T20:57:22.843Z,99575.84
2018-12-03T20:59:55.320Z,99576.23
2018-12-03T21:02:26.638Z,99570.12
2018-12-03T21:04:56.595Z,99556.34
2018-12-03T21:07:28.579Z,99551.78
2018-12-03T21:09:59.071Z,99550.36
2018-12-03T21:12:28.655Z,99557.14
2018-12-03T21:14:58.412Z,99563.72
2018-12-03T21:17:29.266Z,99562.48
2018-12-03T21:20:16.085Z,99556.18
2018-12-03T21:22:47.719Z,99558.69
2018-12-03T21:25:24.688Z,99552.77
2018-12-03T21:27:56.955Z,99550.52
2018-12-03T21:30:34.012Z,99547.84
2018-12-03T21:33:02.376Z,99537.91
2018-12-03T21:35:34.817Z,99540.20
2018-12-03T21:38:06.662Z,99534.30
2018-12-03T21:40:39.472Z,99527.14
2018-12-03T21:43:10.937Z,99535.45
2018-12-03T21:45:45.755Z,99535.45
2018-12-03T21:48:12.377Z,99538.31
2018-12-03T21:50:41.865Z,99534.85
2018-12-03T21:53:13.844Z,99543.25
2018-12-03T21:55:45.732Z,99537.91
2018-12-03T21:58:15.885Z,99537.91
2018-12-03T22:00:50.822Z,99531.22
2018-12-03T22:03:23.558Z,99529.13
2018-12-03T22:05:54.595Z,99531.38
2018-12-03T22:08:25.359Z,99530.46
2018-12-03T22:10:56.631Z,99536.73
2018-12-03T22:13:33.607Z,99531.09
2018-12-03T22:16:07.741Z,99533.77
2018-12-03T22:18:39.367Z,99543.29
2018-12-03T22:21:10.196Z,99543.29
2018-12-03T22:23:43.434Z,99544.79
2018-12-03T22:26:17.725Z,99545.64
2018-12-03T22:28:48.760Z,99547.72
2018-12-03T22:31:20.230Z,99548.52
2018-12-03T22:33:49.313Z,99559.42
2018-12-03T22:36:19.913Z,99560.92
2018-12-03T22:38:49.412Z,99564.77
2018-12-03T22:41:19.181Z,99566.87
2018-12-03T22:43:53.093Z,99569.55
2018-12-03T22:46:22.799Z,99573.87
2018-12-03T22:48:55.002Z,99577.79
2018-12-03T22:51:27.282Z,99580.47
2018-12-03T22:53:59.554Z,99578.97
2018-12-03T22:56:36.771Z,99581.10
2018-12-03T22:59:07.708Z,99573.46
2018-12-03T23:01:40.394Z,99569.83
2018-12-03T23:04:13.359Z,99576.83
2018-12-03T23:06:42.821Z,99578.45
2018-12-03T23:09:12.190Z,99581.06
2018-12-03T23:11:41.709Z,99579.25
2018-12-03T23:14:11.412Z,99579.25
2018-12-03T23:16:41.417Z,99583.48
2018-12-03T23:19:13.512Z,99581.77
2018-12-03T23:21:44.744Z,99583.95
2018-12-03T23:24:16.954Z,99581.77
2018-12-03T23:26:47.909Z,99587.77
2018-12-03T23:29:18.749Z,99583.00
2018-12-03T23:31:49.445Z,99584.66
2018-12-03T23:34:20.855Z,99581.41
2018-12-03T23:36:54.596Z,99582.14
2018-12-03T23:39:25.956Z,99574.50
2018-12-03T23:42:00.648Z,99573.54
2018-12-03T23:44:35.476Z,99568.77
2018-12-03T23:47:08.897Z,99570.59
2018-12-03T23:49:39.135Z,99568.45
2018-12-03T23:52:10.202Z,99572.78
2018-12-03T23:54:40.313Z,99580.87
2018-12-03T23:57:16.222Z,99582.20
2018-12-03T23:59:45.722Z,99583.09
